NSZ3641 LFMN-EKCH
Flight info
| Callsign | NSZ3641 |
|---|---|
| Flight time | N/A |
| Altitude | 18000 |
| Route | BASIP Y15 ANAKI/N0438F360 DCT ROBAS DCT TAGIP DCT BRENO DCT KONIN DCT EXITI DCT EMBOX/N0437F370 DCT NOBRI/N0433F360 M726 ROSOK Q296 MONAK |
| Aircraft | B738/M-SDE2E3GHIJ1LRWXY/LB1 |
Departure
| Time | 2026-05-05 09:35 |
|---|---|
| Airport | Nice-Côte d'Azur Airport (LFMN) |
Arrival
| Time | N/A |
|---|---|
| Airport | Copenhagen Kastrup Airport (EKCH) |
| Time | Latitude | Longitude | Altitude | Speed | Heading |
|---|---|---|---|---|---|
| 2026-05-05 09:04 | 43.66471 | 7.21500 | 21 ft | 0 kts | 315° |
| 2026-05-05 09:24 | 43.66461 | 7.21513 | 24 ft | 4 kts | 315° |
| 2026-05-05 09:25 | 43.66445 | 7.21535 | 22 ft | 4 kts | 306° |
| 2026-05-05 09:25 | 43.66438 | 7.21564 | 21 ft | 4 kts | 243° |
| 2026-05-05 09:25 | 43.66452 | 7.21588 | 22 ft | 1 kts | 225° |
| 2026-05-05 09:25 | 43.66455 | 7.21593 | 22 ft | 0 kts | 225° |
| 2026-05-05 09:28 | 43.66453 | 7.21590 | 22 ft | 2 kts | 225° |
| 2026-05-05 09:28 | 43.66428 | 7.21556 | 22 ft | 9 kts | 225° |
| 2026-05-05 09:29 | 43.66360 | 7.21552 | 21 ft | 12 kts | 141° |
| 2026-05-05 09:29 | 43.66293 | 7.21603 | 20 ft | 12 kts | 201° |
| 2026-05-05 09:29 | 43.66228 | 7.21523 | 20 ft | 14 kts | 224° |
| 2026-05-05 09:29 | 43.66142 | 7.21406 | 20 ft | 21 kts | 224° |
| 2026-05-05 09:30 | 43.66029 | 7.21249 | 20 ft | 24 kts | 225° |
| 2026-05-05 09:30 | 43.65916 | 7.21092 | 20 ft | 23 kts | 224° |
| 2026-05-05 09:30 | 43.65805 | 7.20942 | 20 ft | 22 kts | 225° |
| 2026-05-05 09:30 | 43.65698 | 7.20794 | 20 ft | 21 kts | 225° |
| 2026-05-05 09:31 | 43.65594 | 7.20651 | 21 ft | 21 kts | 224° |
| 2026-05-05 09:31 | 43.65494 | 7.20513 | 20 ft | 20 kts | 225° |
| 2026-05-05 09:31 | 43.65396 | 7.20379 | 20 ft | 20 kts | 225° |
| 2026-05-05 09:31 | 43.65296 | 7.20293 | 20 ft | 16 kts | 175° |
| 2026-05-05 09:32 | 43.65211 | 7.20384 | 20 ft | 16 kts | 133° |
| 2026-05-05 09:32 | 43.65132 | 7.20490 | 20 ft | 17 kts | 136° |
| 2026-05-05 09:32 | 43.65053 | 7.20598 | 21 ft | 16 kts | 135° |
| 2026-05-05 09:32 | 43.64998 | 7.20686 | 22 ft | 7 kts | 96° |
| 2026-05-05 09:33 | 43.65012 | 7.20716 | 22 ft | 0 kts | 44° |
| 2026-05-05 09:34 | 43.65014 | 7.20719 | 22 ft | 2 kts | 44° |
| 2026-05-05 09:34 | 43.65184 | 7.20954 | 21 ft | 79 kts | 45° |
| 2026-05-05 09:34 | 43.65774 | 7.21759 | 24 ft | 157 kts | 46° |
| 2026-05-05 09:34 | 43.66633 | 7.22957 | 600 ft | 186 kts | 48° |
| 2026-05-05 09:35 | 43.67376 | 7.24434 | 1706 ft | 186 kts | 70° |
| 2026-05-05 09:35 | 43.66789 | 7.27751 | 3289 ft | 207 kts | 137° |
| 2026-05-05 09:35 | 43.65707 | 7.29119 | 3863 ft | 212 kts | 135° |
| 2026-05-05 09:36 | 43.64693 | 7.30675 | 4370 ft | 223 kts | 132° |
| 2026-05-05 09:36 | 43.63826 | 7.32470 | 4944 ft | 231 kts | 109° |
| 2026-05-05 09:36 | 43.63745 | 7.34686 | 5591 ft | 236 kts | 79° |
| 2026-05-05 09:36 | 43.64229 | 7.36861 | 6266 ft | 240 kts | 70° |
| 2026-05-05 09:37 | 43.64829 | 7.39042 | 6971 ft | 245 kts | 69° |
| 2026-05-05 09:37 | 43.65434 | 7.41242 | 7758 ft | 247 kts | 70° |
| 2026-05-05 09:37 | 43.66037 | 7.43487 | 8492 ft | 252 kts | 70° |
| 2026-05-05 09:37 | 43.66642 | 7.45779 | 9228 ft | 256 kts | 70° |
| 2026-05-05 09:38 | 43.67256 | 7.48118 | 9960 ft | 261 kts | 70° |
| 2026-05-05 09:38 | 43.67890 | 7.50518 | 10481 ft | 275 kts | 70° |
| 2026-05-05 09:38 | 43.68584 | 7.53126 | 10680 ft | 302 kts | 70° |
| 2026-05-05 09:38 | 43.69340 | 7.55968 | 10891 ft | 328 kts | 70° |
| 2026-05-05 09:39 | 43.70156 | 7.59035 | 11171 ft | 350 kts | 70° |
| 2026-05-05 09:39 | 43.71011 | 7.62254 | 11685 ft | 362 kts | 70° |
| 2026-05-05 09:39 | 43.71882 | 7.65542 | 12437 ft | 366 kts | 70° |
| 2026-05-05 09:39 | 43.72762 | 7.68869 | 13261 ft | 370 kts | 71° |
| 2026-05-05 09:40 | 43.73828 | 7.72133 | 13954 ft | 378 kts | 55° |
| 2026-05-05 09:40 | 43.75545 | 7.74896 | 14641 ft | 380 kts | 46° |
| 2026-05-05 09:40 | 43.77355 | 7.77593 | 15343 ft | 385 kts | 47° |
| 2026-05-05 09:40 | 43.79168 | 7.80358 | 15980 ft | 391 kts | 47° |
| 2026-05-05 09:41 | 43.80978 | 7.83190 | 16633 ft | 395 kts | 48° |
| 2026-05-05 09:41 | 43.82802 | 7.86073 | 17306 ft | 400 kts | 49° |
| 2026-05-05 09:41 | 43.84645 | 7.88993 | 17965 ft | 405 kts | 49° |
| 2026-05-05 09:41 | 43.86512 | 7.91946 | 18569 ft | 410 kts | 49° |
| 2026-05-05 09:42 | 43.88396 | 7.94925 | 19146 ft | 412 kts | 49° |
| 2026-05-05 09:42 | 43.90296 | 7.97926 | 19688 ft | 416 kts | 48° |
| 2026-05-05 09:42 | 43.92193 | 8.00912 | 20241 ft | 420 kts | 48° |
| 2026-05-05 09:42 | 43.94133 | 8.03967 | 20802 ft | 424 kts | 48° |
| 2026-05-05 09:43 | 43.96086 | 8.07044 | 21396 ft | 426 kts | 48° |
| 2026-05-05 09:43 | 43.98046 | 8.10138 | 21999 ft | 429 kts | 48° |
| 2026-05-05 09:43 | 44.00022 | 8.13259 | 22547 ft | 432 kts | 48° |
| 2026-05-05 09:43 | 44.02012 | 8.16408 | 23062 ft | 436 kts | 48° |
| 2026-05-05 09:44 | 44.04014 | 8.19595 | 23572 ft | 440 kts | 50° |
| 2026-05-05 09:44 | 44.05791 | 8.23071 | 23990 ft | 443 kts | 60° |
| 2026-05-05 09:44 | 44.07137 | 8.26925 | 24413 ft | 445 kts | 69° |
| 2026-05-05 09:44 | 44.08280 | 8.30940 | 24855 ft | 448 kts | 70° |
| 2026-05-05 09:45 | 44.09405 | 8.35004 | 25233 ft | 452 kts | 70° |
| 2026-05-05 09:45 | 44.10543 | 8.39094 | 25691 ft | 454 kts | 70° |
| 2026-05-05 09:45 | 44.11697 | 8.43189 | 26138 ft | 456 kts | 70° |
| 2026-05-05 09:45 | 44.12871 | 8.47310 | 26515 ft | 460 kts | 69° |
| 2026-05-05 09:46 | 44.14060 | 8.51456 | 26867 ft | 464 kts | 69° |
| 2026-05-05 09:46 | 44.15262 | 8.55645 | 27238 ft | 467 kts | 69° |
| 2026-05-05 09:46 | 44.16471 | 8.59864 | 27607 ft | 471 kts | 69° |
| 2026-05-05 09:46 | 44.17686 | 8.64113 | 27963 ft | 474 kts | 69° |
| 2026-05-05 09:47 | 44.19015 | 8.68335 | 28280 ft | 478 kts | 61° |
| 2026-05-05 09:47 | 44.20897 | 8.72159 | 28586 ft | 481 kts | 48° |
| 2026-05-05 09:47 | 44.23265 | 8.75433 | 29038 ft | 478 kts | 37° |
| 2026-05-05 09:47 | 44.25969 | 8.78099 | 29454 ft | 477 kts | 30° |
| 2026-05-05 09:48 | 44.28774 | 8.80594 | 29770 ft | 480 kts | 29° |
| 2026-05-05 09:48 | 44.31613 | 8.83076 | 30038 ft | 484 kts | 29° |
| 2026-05-05 09:48 | 44.34475 | 8.85581 | 30305 ft | 486 kts | 29° |
| 2026-05-05 09:48 | 44.37341 | 8.88114 | 30583 ft | 488 kts | 30° |
| 2026-05-05 09:49 | 44.40204 | 8.90671 | 30861 ft | 490 kts | 30° |
| 2026-05-05 09:49 | 44.43039 | 8.93224 | 31112 ft | 492 kts | 30° |
| 2026-05-05 09:49 | 44.45923 | 8.95837 | 31362 ft | 495 kts | 30° |
| 2026-05-05 09:49 | 44.48817 | 8.98468 | 31620 ft | 497 kts | 30° |
| 2026-05-05 09:50 | 44.51716 | 9.01109 | 31930 ft | 497 kts | 30° |
| 2026-05-05 09:50 | 44.54612 | 9.03753 | 32306 ft | 496 kts | 30° |
| 2026-05-05 09:50 | 44.57502 | 9.06392 | 32678 ft | 495 kts | 30° |
| 2026-05-05 09:50 | 44.60390 | 9.09032 | 32971 ft | 495 kts | 30° |
| 2026-05-05 09:51 | 44.62340 | 9.10816 | 33229 ft | 494 kts | 30° |